Portada
METAR-TAF:

METAR-TAF

Aeropuertos :

Aeropuerto de Ouarzazate

Uarzazate, Marruecos

latitud: 30-56N, longitud: 006-54W, altitud: 1139 m

Observación

El informe se hizo hace 52 minutos, a las 07:00 UTC
Viento 2 kt con dirección variable
Temperatura 19°C
Humedad 49%
Presión 1019 hPa
Visibilidad 10 km o más
sin nubes por debajo de 1500 m y sin presencia de cumulonimbus.

METAR: GMMZ 240700Z VRB02KT CAVOK 19/08 Q1019 NOSIG

Hora: 07:52 (07:52 UTC)

Pronóstico

El informe se hizo hace 2 horas y 52 minutos, a las 05:00 UTC
Pronóstico válido del 24 a las 06 UTC al 25 a las 12 UTC
Viento 4 kt del oeste
Visibilidad 10 km o más
Escasas nubes a una altura de 4000 ft
Probabilidad 30% :
Temporalmente
del 24 a las 13 UTC al 24 a las 21 UTC
Viento 16 kt del norte-noroeste
Escasas nubes a una altura de 5000 ft, Cumulonimbus.

TAF: GMMZ 240500Z 2406/2512 28004KT 9999 FEW040 PROB30 TEMPO 2413/2421 34016KT FEW050CB

Observaciones y pronósticos meteorológicos de más de 4000 aeropuertos (mensajes METAR y TAF).

Los puntos amarillos y rojos representan las estaciones disponibles.

Ponga el ratón en el punto deseado para ver el nombre de la estación.

Haga clic para ver las observaciones y los pronósticos meteorológicos.

Para cambiar el mapa : haga clic en los botones verdes con una cruz de color negro para hacer un zoom, en el botón verde con un guión para alejar o en las flechas verdes para mapas adyacentes.


METAR-TAF: